createdAt,value
2023-03-21T00:05:15.422Z,16.4
2023-03-21T00:11:33.629Z,16.6
2023-03-21T00:17:42.665Z,16.6
2023-03-21T00:24:19.507Z,16.5
2023-03-21T00:30:54.019Z,16.4
2023-03-21T00:38:03.041Z,16.6
2023-03-21T00:44:27.977Z,16.6
2023-03-21T00:50:45.215Z,16.5
2023-03-21T00:56:38.778Z,16.4
2023-03-21T01:02:45.180Z,16.6
2023-03-21T01:08:52.510Z,16.6
2023-03-21T01:14:54.907Z,16.5
2023-03-21T01:21:13.423Z,16.4
2023-03-21T01:26:46.026Z,16.4
2023-03-21T01:32:55.019Z,16.6
2023-03-21T01:38:55.990Z,16.6
2023-03-21T01:44:30.113Z,16.4
2023-03-21T01:50:29.813Z,16.3
2023-03-21T01:56:28.748Z,16.4
2023-03-21T02:02:00.736Z,16.6
2023-03-21T02:07:56.436Z,16.6
2023-03-21T02:13:43.523Z,16.4
2023-03-21T02:19:52.866Z,16.3
2023-03-21T02:25:10.743Z,16.4
2023-03-21T02:31:25.135Z,16.6
2023-03-21T02:38:01.229Z,16.5
2023-03-21T02:44:28.762Z,16.4
2023-03-21T02:51:03.476Z,16.3
2023-03-21T02:57:42.441Z,16.4
2023-03-21T03:03:34.245Z,16.4
2023-03-21T03:09:19.400Z,16.4
2023-03-21T03:15:51.149Z,16.4
2023-03-21T03:21:39.616Z,16.3
2023-03-21T03:27:39.274Z,16.4
2023-03-21T03:33:38.978Z,16.5
2023-03-21T03:39:19.502Z,16.4
2023-03-21T03:45:46.981Z,16.3
2023-03-21T03:51:50.130Z,16.3
2023-03-21T03:58:00.145Z,16.4
2023-03-21T04:04:29.941Z,16.4
2023-03-21T04:10:35.674Z,16.4
2023-03-21T04:16:35.594Z,16.3
2023-03-21T04:22:17.709Z,16.3
2023-03-21T04:28:26.021Z,16.4
2023-03-21T04:34:44.681Z,16.5
2023-03-21T04:40:37.491Z,16.4
2023-03-21T04:46:30.076Z,16.3
2023-03-21T04:52:21.026Z,16.3
2023-03-21T04:58:14.504Z,16.3
2023-03-21T05:04:07.201Z,16.4
2023-03-21T05:10:01.900Z,16.4
2023-03-21T05:15:55.922Z,16.3
2023-03-21T05:21:47.427Z,16.2
2023-03-21T05:27:39.309Z,16.3
2023-03-21T05:33:33.058Z,16.4
2023-03-21T05:39:10.676Z,16.4
2023-03-21T05:45:03.657Z,16.3
2023-03-21T05:50:42.068Z,16.3
2023-03-21T05:56:34.395Z,16.3
2023-03-21T06:02:26.595Z,16.4
2023-03-21T06:08:19.766Z,16.4
2023-03-21T06:14:11.927Z,16.3
2023-03-21T06:20:04.612Z,16.3
2023-03-21T06:25:27.129Z,16.3
2023-03-21T06:31:03.583Z,16.4
2023-03-21T06:36:56.227Z,16.4
2023-03-21T06:42:49.115Z,16.4
2023-03-21T06:48:42.713Z,16.3
2023-03-21T06:54:04.840Z,16.2
2023-03-21T06:59:57.198Z,16.3
2023-03-21T07:05:37.433Z,16.4
2023-03-21T07:11:14.232Z,16.4
2023-03-21T07:17:07.908Z,16.3
2023-03-21T07:23:00.700Z,16.2
2023-03-21T07:28:59.326Z,16.4
2023-03-21T07:34:21.546Z,16.4
2023-03-21T07:39:58.036Z,16.4
2023-03-21T07:45:54.419Z,16.3
2023-03-21T07:51:47.856Z,16.2
2023-03-21T07:57:41.291Z,16.3
2023-03-21T08:03:34.334Z,16.4
2023-03-21T08:09:30.714Z,16.4
2023-03-21T08:15:24.262Z,16.3
2023-03-21T08:21:16.610Z,16.3
2023-03-21T08:27:09.476Z,16.4
2023-03-21T08:32:47.388Z,16.6
2023-03-21T08:38:43.936Z,16.4
2023-03-21T08:44:38.346Z,16.3
2023-03-21T08:50:15.879Z,16.3
2023-03-21T08:56:09.863Z,16.5
2023-03-21T09:02:03.801Z,16.6
2023-03-21T09:07:57.668Z,16.5
2023-03-21T09:14:11.266Z,16.4
2023-03-21T09:19:51.172Z,16.4
2023-03-21T09:25:45.475Z,16.6
2023-03-21T09:31:22.530Z,16.6
2023-03-21T09:37:16.184Z,16.6
2023-03-21T09:43:08.560Z,16.5
2023-03-21T09:49:13.669Z,16.6
2023-03-21T09:55:12.975Z,16.7
2023-03-21T10:01:06.876Z,16.7
2023-03-21T10:07:01.004Z,16.6
2023-03-21T10:12:53.777Z,16.6
2023-03-21T10:18:50.267Z,16.6
2023-03-21T10:25:09.836Z,16.9
2023-03-21T10:31:19.741Z,16.9
2023-03-21T10:37:14.538Z,16.7
2023-03-21T10:42:52.446Z,16.6
2023-03-21T10:48:50.957Z,16.8
2023-03-21T10:55:06.447Z,16.9
2023-03-21T11:00:44.040Z,16.8
2023-03-21T11:06:22.150Z,16.7
2023-03-21T11:12:26.193Z,16.6
2023-03-21T11:18:20.740Z,16.8
2023-03-21T11:23:59.260Z,16.9
2023-03-21T11:29:52.295Z,16.8
2023-03-21T11:35:45.267Z,16.7
2023-03-21T11:41:38.022Z,16.6
2023-03-21T11:47:32.865Z,16.8
2023-03-21T11:53:15.356Z,16.8
2023-03-21T11:59:21.196Z,16.8
2023-03-21T12:05:27.621Z,16.7
2023-03-21T12:11:20.699Z,16.6
2023-03-21T12:17:22.004Z,16.8
2023-03-21T12:23:16.234Z,16.9
2023-03-21T12:29:22.655Z,16.8
2023-03-21T12:35:16.756Z,16.8
2023-03-21T12:41:12.328Z,16.6
2023-03-21T12:47:26.157Z,16.6
2023-03-21T12:53:04.739Z,16.4
2023-03-21T12:58:32.997Z,16.4
2023-03-21T13:04:29.720Z,16.3
2023-03-21T13:10:14.230Z,16.3
2023-03-21T13:16:15.049Z,16.2
2023-03-21T13:22:07.155Z,16.1
2023-03-21T13:28:01.291Z,16.1
2023-03-21T13:33:49.698Z,16.1
2023-03-21T13:39:41.682Z,16
2023-03-21T13:45:41.083Z,15.9
2023-03-21T13:51:55.023Z,15.9
2023-03-21T13:57:48.497Z,15.9
2023-03-21T14:03:29.192Z,15.9
2023-03-21T14:10:02.145Z,15.8
2023-03-21T14:16:23.318Z,15.8
2023-03-21T14:22:32.856Z,15.8
2023-03-21T14:28:34.020Z,15.7
2023-03-21T14:34:29.360Z,15.6
2023-03-21T14:40:17.430Z,15.6
2023-03-21T14:46:19.337Z,15.6
2023-03-21T14:52:11.986Z,15.6
2023-03-21T14:57:49.738Z,15.6
2023-03-21T15:03:28.516Z,15.6
2023-03-21T15:09:06.922Z,15.5
2023-03-21T15:15:12.994Z,15.5
2023-03-21T15:21:07.265Z,15.5
2023-03-21T15:27:00.757Z,15.5
2023-03-21T15:32:39.714Z,15.5
2023-03-21T15:38:17.365Z,15.5
2023-03-21T15:43:56.958Z,15.4
2023-03-21T15:49:35.903Z,15.4
2023-03-21T15:55:16.223Z,15.4
2023-03-21T16:00:22.800Z,15.4
2023-03-21T16:06:16.672Z,15.4
2023-03-21T16:12:10.115Z,15.4
2023-03-21T16:18:02.165Z,15.4
2023-03-21T16:23:55.205Z,15.4
2023-03-21T16:29:47.799Z,15.4
2023-03-21T16:35:40.982Z,15.4
2023-03-21T16:41:18.556Z,15.4
2023-03-21T16:46:56.887Z,15.4
2023-03-21T16:52:34.460Z,15.6
2023-03-21T16:58:11.928Z,15.8
2023-03-21T17:04:06.848Z,27.9
2023-03-21T17:09:45.364Z,38.6
2023-03-21T17:15:38.269Z,40.6
2023-03-21T17:21:32.668Z,39.3
2023-03-21T17:27:11.746Z,41
2023-03-21T17:33:04.926Z,40.8
2023-03-21T17:38:58.147Z,39.3
2023-03-21T17:44:50.244Z,42.4
2023-03-21T17:50:13.099Z,39.9
2023-03-21T17:55:38.095Z,39.3
2023-03-21T18:01:31.599Z,42.8
2023-03-21T18:08:04.434Z,39.2
2023-03-21T18:14:15.661Z,38.6
2023-03-21T18:19:50.599Z,42.8
2023-03-21T18:26:10.528Z,40.2
2023-03-21T18:34:34.244Z,44.7
2023-03-21T18:40:34.211Z,45.9
2023-03-21T18:47:40.891Z,44.1
2023-03-21T18:54:24.443Z,42.1
2023-03-21T19:01:38.006Z,43.1
2023-03-21T19:07:57.690Z,43.8
2023-03-21T19:14:25.039Z,45.6
2023-03-21T19:21:55.849Z,42.9
2023-03-21T19:28:25.646Z,40.8
2023-03-21T19:34:42.874Z,44.1
2023-03-21T19:40:59.966Z,39.2
2023-03-21T19:47:16.265Z,38.2
2023-03-21T19:54:33.807Z,38.4
2023-03-21T20:00:39.322Z,37.2
2023-03-21T20:06:59.052Z,35.6
2023-03-21T20:13:43.647Z,34
2023-03-21T20:19:53.101Z,32.3
2023-03-21T20:26:25.675Z,31.1
2023-03-21T20:33:43.518Z,30.1
2023-03-21T20:40:52.082Z,29.4
2023-03-21T20:48:07.521Z,29
2023-03-21T20:55:21.332Z,29.8
2023-03-21T21:02:02.769Z,30.2
2023-03-21T21:08:16.399Z,30
2023-03-21T21:15:01.153Z,29.5
2023-03-21T21:21:24.052Z,28.9
2023-03-21T21:27:26.374Z,28.1
2023-03-21T21:33:19.849Z,27.7
2023-03-21T21:39:12.456Z,27.3
2023-03-21T21:45:04.710Z,26.9
2023-03-21T21:50:43.059Z,26.6
2023-03-21T21:56:20.308Z,26.6
2023-03-21T22:02:13.473Z,25
2023-03-21T22:07:50.950Z,23.9
2023-03-21T22:13:31.782Z,23.3
2023-03-21T22:19:09.591Z,22.8
2023-03-21T22:24:50.393Z,22.3
2023-03-21T22:30:44.622Z,21.8
2023-03-21T22:36:29.448Z,21.4
2023-03-21T22:42:22.767Z,21.1
2023-03-21T22:47:59.299Z,20.9
2023-03-21T22:53:51.355Z,20.9
2023-03-21T22:59:44.262Z,20.7
2023-03-21T23:05:22.760Z,20.4
2023-03-21T23:11:00.636Z,20.2
2023-03-21T23:16:53.665Z,19.9
2023-03-21T23:22:30.571Z,19.7
2023-03-21T23:28:26.133Z,19.6
2023-03-21T23:34:04.150Z,19.4
2023-03-21T23:39:57.030Z,19.4
2023-03-21T23:45:48.632Z,19.5
2023-03-21T23:51:42.628Z,19.4
2023-03-21T23:57:36.116Z,19.3
